Time;durP1;ratioP1;P1;durP2;ratioP2;P2;SDS_P1;SDS_P2;PMS_P1;PMS_P2;Temp;Humidity;BMP_temperature;BMP_pressure;BME280_temperature;BME280_humidity;BME280_pressure;Samples;Min_cycle;Max_cycle;Signal;HPM_P1;HPM_P2
2021/12/29 00:01:33;;;;;;;3.17;0.60;;;10.90;88.00;11.20;95031.00;;;;5054400;28;20214;-84
2021/12/29 00:04:00;;;;;;;1.40;0.37;;;10.90;88.00;11.20;95027.00;;;;5054350;28;20201;-84
2021/12/29 00:06:27;;;;;;;2.33;0.50;;;11.00;88.20;11.20;95025.00;;;;5054249;28;20200;-84
2021/12/29 00:08:55;;;;;;;2.33;0.60;;;11.00;88.20;11.30;95031.00;;;;5054004;28;20583;-84
2021/12/29 00:11:22;;;;;;;4.77;1.10;;;11.00;88.30;11.30;95037.00;;;;5058785;28;20214;-85
2021/12/29 00:13:49;;;;;;;4.30;0.93;;;11.10;88.40;11.30;95035.00;;;;5073133;28;20196;-85
2021/12/29 00:16:17;;;;;;;2.50;1.00;;;11.10;89.20;11.30;95038.00;;;;5055359;28;20193;-84
2021/12/29 00:18:45;;;;;;;6.73;1.47;;;11.10;88.50;11.40;95043.00;;;;5056141;28;20206;-83
2021/12/29 00:21:14;;;;;;;1.97;0.80;;;11.20;88.60;11.40;95039.00;;;;5073578;28;20215;-85
2021/12/29 00:23:41;;;;;;;2.53;0.90;;;11.20;88.50;11.50;95053.00;;;;5073571;28;20224;-84
2021/12/29 00:26:11;;;;;;;4.97;1.10;;;11.20;88.60;11.50;95054.00;;;;5073691;28;20199;-87
2021/12/29 00:28:38;;;;;;;5.70;1.77;;;11.30;88.70;11.50;95044.00;;;;5074021;28;20204;-84
2021/12/29 00:31:05;;;;;;;7.60;0.90;;;11.20;88.60;11.60;95045.00;;;;5065796;28;20219;-85
2021/12/29 00:33:32;;;;;;;2.00;1.00;;;11.30;88.80;11.60;95039.00;;;;5052699;28;20204;-84
2021/12/29 00:36:00;;;;;;;3.73;1.07;;;11.40;88.50;11.60;95049.00;;;;5053378;28;20719;-85
2021/12/29 00:38:27;;;;;;;2.57;0.70;;;11.40;88.60;11.70;95046.00;;;;5053408;28;20203;-85
2021/12/29 00:40:54;;;;;;;3.10;1.00;;;11.50;88.60;11.70;95045.00;;;;5073206;28;20298;-83
2021/12/29 00:43:21;;;;;;;5.50;1.43;;;11.50;88.50;11.70;95044.00;;;;5073361;28;20301;-84
2021/12/29 00:45:50;;;;;;;3.63;1.10;;;11.50;88.40;11.70;95049.00;;;;5073627;28;20200;-83
2021/12/29 00:48:19;;;;;;;4.17;1.07;;;11.50;88.30;11.80;95049.00;;;;5058208;28;20266;-87
2021/12/29 00:51:02;;;;;;;6.13;0.87;;;11.60;88.30;11.80;95053.00;;;;5052948;28;20275;-84
2021/12/29 00:53:29;;;;;;;4.07;1.10;;;11.60;88.30;11.80;95054.00;;;;5052971;28;20203;-84
2021/12/29 00:55:56;;;;;;;5.90;1.30;;;11.70;88.10;11.80;95052.00;;;;5053018;28;20226;-84
2021/12/29 00:58:24;;;;;;;4.10;1.10;;;11.70;88.10;11.90;95065.00;;;;5052533;28;20216;-86
2021/12/29 01:00:52;;;;;;;6.27;1.47;;;11.70;88.10;11.90;95073.00;;;;5053517;28;20232;-86
2021/12/29 01:03:19;;;;;;;3.03;1.00;;;11.80;88.10;11.90;95062.00;;;;5053072;28;20205;-84
2021/12/29 01:05:47;;;;;;;4.50;1.00;;;11.70;88.00;11.90;95081.00;;;;5052591;28;20212;-84
2021/12/29 01:08:16;;;;;;;6.47;1.30;;;11.70;87.30;11.90;95083.00;;;;5051955;28;20620;-84
2021/12/29 01:10:43;;;;;;;3.23;0.93;;;11.70;87.70;11.90;95083.00;;;;5052202;28;20216;-83
2021/12/29 01:13:14;;;;;;;3.53;1.27;;;11.70;87.80;11.90;95089.00;;;;5052075;28;20562;-83
2021/12/29 01:15:57;;;;;;;2.90;0.87;;;11.80;87.90;11.90;95090.00;;;;5051033;28;20216;-84
2021/12/29 01:18:26;;;;;;;4.97;1.20;;;11.80;87.70;12.00;95098.00;;;;5051505;28;20653;-84
2021/12/29 01:20:55;;;;;;;2.60;0.90;;;11.90;87.80;12.00;95101.00;;;;5051713;28;20217;-84
2021/12/29 01:23:24;;;;;;;3.73;1.07;;;11.80;87.70;12.00;95095.00;;;;5052962;28;20201;-85
2021/12/29 01:25:51;;;;;;;6.43;1.40;;;11.80;87.70;12.00;95093.00;;;;5053065;28;20201;-84
2021/12/29 01:28:19;;;;;;;5.93;0.97;;;11.80;87.80;12.00;95101.00;;;;5052885;28;20204;-86
2021/12/29 01:30:47;;;;;;;3.00;0.80;;;11.80;87.80;12.00;95092.00;;;;5052477;28;20768;-84
2021/12/29 01:33:15;;;;;;;2.13;0.77;;;11.80;87.60;12.00;95106.00;;;;5052652;28;20197;-84
2021/12/29 01:35:43;;;;;;;2.53;1.20;;;11.80;87.50;12.00;95103.00;;;;5052011;28;20225;-84
2021/12/29 01:38:11;;;;;;;3.63;1.03;;;11.80;87.50;12.00;95109.00;;;;5052599;28;20565;-84
2021/12/29 01:40:40;;;;;;;3.20;1.33;;;11.80;87.60;12.00;95111.00;;;;5052087;28;20698;-83
2021/12/29 01:43:10;;;;;;;4.53;0.80;;;11.90;87.30;12.00;95108.00;;;;5052669;28;20192;-84
2021/12/29 01:45:38;;;;;;;3.23;0.80;;;11.80;87.30;12.00;95122.00;;;;5057590;28;20208;-84
2021/12/29 01:48:06;;;;;;;4.53;0.70;;;11.80;87.30;11.90;95118.00;;;;5072202;28;20196;-84
2021/12/29 01:50:35;;;;;;;3.90;0.60;;;11.80;87.40;12.00;95131.00;;;;5065963;28;20693;-84
2021/12/29 01:53:08;;;;;;;2.97;0.80;;;11.80;87.40;11.90;95130.00;;;;5052149;28;20718;-83
2021/12/29 01:55:37;;;;;;;2.13;0.70;;;11.80;87.40;12.00;95138.00;;;;5051461;28;20223;-84
2021/12/29 01:58:06;;;;;;;3.13;0.97;;;11.80;87.50;11.90;95129.00;;;;5052216;28;20676;-83
2021/12/29 02:00:38;;;;;;;6.33;1.10;;;11.80;87.40;12.00;95138.00;;;;5051614;28;20239;-86
2021/12/29 02:03:07;;;;;;;4.77;0.77;;;12.00;87.40;11.90;95140.00;;;;5051400;28;20201;-85
2021/12/29 02:05:35;;;;;;;3.33;0.87;;;11.80;87.40;12.00;95142.00;;;;5051299;28;20247;-86
2021/12/29 02:08:02;;;;;;;7.83;1.30;;;11.80;87.30;12.00;95143.00;;;;5051786;28;20214;-86
2021/12/29 02:10:31;;;;;;;2.37;0.80;;;11.90;87.50;12.00;95132.00;;;;5051270;28;20216;-86
2021/12/29 02:12:59;;;;;;;2.60;1.07;;;11.80;87.30;12.00;95136.00;;;;5051187;28;20212;-86
2021/12/29 02:15:28;;;;;;;3.90;1.00;;;11.80;87.20;12.00;95139.00;;;;5051287;28;20236;-86
2021/12/29 02:17:55;;;;;;;2.17;1.00;;;11.90;87.40;12.00;95131.00;;;;5051528;28;20193;-86
2021/12/29 02:20:23;;;;;;;4.43;1.27;;;11.90;87.30;12.00;95128.00;;;;5050876;28;20234;-86
2021/12/29 02:23:00;;;;;;;5.13;1.17;;;11.80;87.10;12.00;95123.00;;;;5050307;28;20646;-86
2021/12/29 02:25:46;;;;;;;5.57;0.83;;;12.10;87.30;12.00;95146.00;;;;5051054;28;20561;-86
2021/12/29 02:28:14;;;;;;;3.70;0.93;;;11.90;87.20;12.00;95151.00;;;;5050517;28;20196;-86
2021/12/29 02:30:41;;;;;;;5.47;1.30;;;11.90;87.20;12.00;95163.00;;;;5050221;28;20216;-86
2021/12/29 02:33:13;;;;;;;3.80;0.90;;;11.90;88.00;12.00;95159.00;;;;5050729;28;20189;-87
2021/12/29 02:35:42;;;;;;;3.87;1.00;;;11.90;87.10;12.00;95166.00;;;;5048519;28;20300;-85
2021/12/29 02:38:22;;;;;;;4.20;1.20;;;11.90;86.70;12.00;95169.00;;;;5051152;28;20185;-86
2021/12/29 02:40:55;;;;;;;3.00;1.00;;;11.90;86.50;12.00;95187.00;;;;5050144;28;20212;-86
2021/12/29 02:43:24;;;;;;;2.77;1.03;;;11.90;86.70;12.00;95180.00;;;;5049436;28;20197;-86
2021/12/29 02:45:58;;;;;;;8.63;1.43;;;11.90;86.80;12.00;95190.00;;;;5050149;28;20197;-87
2021/12/29 02:48:29;;;;;;;6.77;1.57;;;11.90;86.90;12.10;95207.00;;;;5049911;28;20196;-86
2021/12/29 02:50:59;;;;;;;4.47;1.20;;;11.90;87.70;12.10;95206.00;;;;5050732;28;20213;-86
2021/12/29 02:53:28;;;;;;;3.00;0.80;;;12.00;87.00;12.10;95209.00;;;;5050743;28;20284;-86
2021/12/29 02:55:56;;;;;;;2.17;0.73;;;12.00;86.90;12.10;95211.00;;;;5047944;28;20212;-86
2021/12/29 02:58:25;;;;;;;3.27;0.77;;;11.90;86.80;12.00;95212.00;;;;5050527;28;20204;-86
2021/12/29 03:00:56;;;;;;;4.73;1.13;;;11.90;86.80;12.10;95211.00;;;;5050221;28;20228;-87
2021/12/29 03:03:27;;;;;;;2.70;0.90;;;11.90;86.80;12.10;95216.00;;;;5050075;28;20647;-85
2021/12/29 03:05:56;;;;;;;3.87;0.93;;;12.00;86.90;12.10;95228.00;;;;5049610;28;20196;-86
2021/12/29 03:08:25;;;;;;;4.63;1.10;;;12.00;86.90;12.10;95222.00;;;;5050424;28;20193;-86
2021/12/29 03:10:53;;;;;;;4.43;1.37;;;12.00;87.00;12.10;95224.00;;;;5050021;28;20221;-86
2021/12/29 03:13:21;;;;;;;2.47;0.60;;;12.00;86.50;12.10;95233.00;;;;5050676;28;20651;-86
2021/12/29 03:15:51;;;;;;;4.17;1.03;;;12.00;86.70;12.10;95236.00;;;;5053011;28;20552;-86
2021/12/29 03:18:18;;;;;;;7.67;1.17;;;12.00;86.60;12.10;95239.00;;;;5052133;28;20200;-86
2021/12/29 03:20:46;;;;;;;6.30;0.93;;;12.00;86.60;12.10;95239.00;;;;5053691;28;20216;-85
2021/12/29 03:23:16;;;;;;;6.23;1.30;;;12.00;86.20;12.10;95240.00;;;;5053334;28;20197;-86
2021/12/29 03:25:47;;;;;;;3.57;0.90;;;12.00;86.20;12.10;95241.00;;;;5053617;28;20267;-85
2021/12/29 03:28:14;;;;;;;3.10;0.87;;;12.00;86.00;12.10;95242.00;;;;5054005;28;20246;-84
2021/12/29 03:30:43;;;;;;;5.27;1.17;;;12.00;86.30;12.10;95243.00;;;;5052788;28;20216;-85
2021/12/29 03:33:10;;;;;;;5.17;0.90;;;12.00;86.30;12.10;95255.00;;;;5052504;28;20201;-86
2021/12/29 03:35:42;;;;;;;2.87;0.90;;;12.00;86.20;12.10;95266.00;;;;5052663;28;20220;-84
2021/12/29 03:38:13;;;;;;;2.90;0.90;;;12.00;86.00;12.10;95272.00;;;;5052926;28;20279;-85
2021/12/29 03:40:42;;;;;;;2.93;1.13;;;12.00;86.00;12.10;95255.00;;;;5051345;28;20606;-85
2021/12/29 03:43:11;;;;;;;2.97;1.00;;;12.00;85.70;12.10;95263.00;;;;5052782;28;20196;-86
2021/12/29 03:45:41;;;;;;;4.60;0.80;;;12.00;86.40;12.10;95289.00;;;;5053802;28;20653;-85
2021/12/29 03:48:10;;;;;;;6.73;1.10;;;12.00;85.60;12.10;95288.00;;;;5054033;28;20203;-86
2021/12/29 03:50:38;;;;;;;3.40;1.00;;;12.00;85.80;12.10;95297.00;;;;5054052;28;20229;-85
2021/12/29 03:53:06;;;;;;;3.57;1.10;;;12.00;85.80;12.10;95297.00;;;;5054252;28;20197;-86
2021/12/29 03:55:34;;;;;;;4.00;1.20;;;12.00;85.60;12.10;95287.00;;;;5053793;28;20290;-85
2021/12/29 03:58:02;;;;;;;3.37;0.80;;;12.00;85.50;12.10;95311.00;;;;5053346;28;20200;-86
2021/12/29 04:00:29;;;;;;;4.03;1.20;;;12.00;85.50;12.10;95296.00;;;;5053382;28;20225;-86
2021/12/29 04:02:56;;;;;;;4.90;1.10;;;12.00;85.20;12.10;95303.00;;;;5053933;28;20203;-85
2021/12/29 04:05:25;;;;;;;3.30;1.10;;;12.10;85.10;12.10;95315.00;;;;5053746;28;20289;-85
2021/12/29 04:07:55;;;;;;;7.07;1.10;;;12.70;85.40;12.10;95319.00;;;;5054059;28;20574;-86
2021/12/29 04:10:23;;;;;;;3.33;0.87;;;12.00;85.40;12.10;95314.00;;;;5054163;28;20624;-86
2021/12/29 04:12:51;;;;;;;3.73;0.70;;;12.00;85.30;12.10;95325.00;;;;5053447;28;20204;-85
2021/12/29 04:15:19;;;;;;;2.90;1.03;;;12.00;85.50;12.10;95319.00;;;;5052629;28;20570;-85
2021/12/29 04:17:51;;;;;;;6.87;1.10;;;12.00;85.20;12.10;95321.00;;;;5053630;28;20197;-85
2021/12/29 04:23:09;;;;;;;5.43;1.10;;;12.00;85.40;12.10;95324.00;;;;5051795;28;20215;-86
2021/12/29 04:25:38;;;;;;;2.37;1.23;;;12.00;85.50;12.10;95332.00;;;;5051271;28;20204;-86
2021/12/29 04:28:14;;;;;;;4.23;0.97;;;12.00;85.50;12.10;95323.00;;;;5052595;28;20201;-85
2021/12/29 04:30:43;;;;;;;4.30;1.40;;;12.00;85.50;12.10;95332.00;;;;5052222;28;20239;-84
2021/12/29 04:33:11;;;;;;;3.73;0.80;;;12.00;85.50;12.10;95328.00;;;;5053145;28;20197;-86
2021/12/29 04:35:38;;;;;;;4.63;1.13;;;12.40;85.70;12.10;95341.00;;;;5053132;28;20221;-86
2021/12/29 04:38:05;;;;;;;2.23;0.60;;;12.00;85.50;12.10;95340.00;;;;5032981;28;20216;-87
2021/12/29 04:40:33;;;;;;;5.93;1.10;;;12.00;85.20;12.10;95358.00;;;;5033260;28;20279;-86
2021/12/29 04:43:00;;;;;;;2.80;1.10;;;12.00;85.30;12.10;95364.00;;;;5055110;28;20209;-85
2021/12/29 04:45:27;;;;;;;3.17;0.80;;;12.00;85.50;12.10;95353.00;;;;5073201;28;20257;-86
2021/12/29 04:47:56;;;;;;;3.87;0.90;;;12.00;85.50;12.10;95350.00;;;;5057159;28;20407;-86
2021/12/29 04:50:28;;;;;;;2.27;0.73;;;12.00;85.50;12.10;95369.00;;;;5052574;28;20734;-86
2021/12/29 04:52:58;;;;;;;3.30;0.93;;;12.00;85.20;12.10;95363.00;;;;5053185;28;20189;-86
2021/12/29 04:55:26;;;;;;;6.63;0.73;;;12.00;85.20;12.10;95357.00;;;;5052784;28;20208;-86
2021/12/29 04:57:53;;;;;;;4.07;0.70;;;12.00;85.20;12.10;95362.00;;;;5052524;28;20193;-86
2021/12/29 05:00:24;;;;;;;4.50;0.90;;;11.90;85.30;12.10;95381.00;;;;5053115;28;20228;-85
2021/12/29 05:02:52;;;;;;;2.70;0.93;;;12.00;85.40;12.20;95375.00;;;;5053174;28;20604;-86
2021/12/29 05:05:28;;;;;;;3.90;0.83;;;12.10;85.30;12.20;95382.00;;;;5052866;28;20293;-86
2021/12/29 05:10:39;;;;;;;6.33;0.80;;;12.00;84.80;12.10;95382.00;;;;5050155;28;20220;-86
2021/12/29 05:13:07;;;;;;;1.23;0.53;;;12.10;85.20;12.20;95376.00;;;;5058276;28;20565;-86
2021/12/29 05:15:34;;;;;;;1.60;0.60;;;12.00;85.10;12.20;95383.00;;;;5055882;28;20193;-86
2021/12/29 05:18:01;;;;;;;3.67;0.97;;;12.10;85.20;12.20;95395.00;;;;5052424;28;20208;-85
2021/12/29 05:20:31;;;;;;;1.93;0.80;;;12.00;85.10;12.20;95389.00;;;;5052216;28;20311;-86
2021/12/29 05:23:00;;;;;;;2.77;0.83;;;12.10;85.00;12.20;95407.00;;;;5051940;28;20431;-87
2021/12/29 05:25:28;;;;;;;4.90;0.70;;;12.10;85.00;12.20;95414.00;;;;5051778;28;20209;-85
2021/12/29 05:27:56;;;;;;;1.90;0.77;;;12.10;84.80;12.20;95409.00;;;;5051959;28;20200;-85
2021/12/29 05:30:24;;;;;;;3.73;0.67;;;12.10;84.90;12.20;95408.00;;;;5052063;28;20584;-86
2021/12/29 05:32:52;;;;;;;2.13;0.80;;;12.10;85.00;12.30;95412.00;;;;5052287;28;20193;-85
2021/12/29 05:35:19;;;;;;;0.83;0.67;;;12.10;84.80;12.30;95419.00;;;;5055873;28;20236;-85
2021/12/29 05:37:47;;;;;;;1.70;0.80;;;12.10;84.80;12.30;95428.00;;;;5052333;28;20586;-86
2021/12/29 05:40:15;;;;;;;2.43;0.60;;;12.20;84.90;12.30;95432.00;;;;5052219;28;20724;-86
2021/12/29 05:42:42;;;;;;;1.57;0.40;;;12.20;84.90;12.30;95439.00;;;;5053814;28;20731;-85
2021/12/29 05:45:13;;;;;;;1.73;0.50;;;12.20;84.70;12.30;95440.00;;;;5060816;28;20193;-85
2021/12/29 05:47:41;;;;;;;1.20;0.53;;;12.20;84.60;12.40;95448.00;;;;5051744;28;20205;-85
2021/12/29 05:50:16;;;;;;;3.50;0.60;;;12.20;84.70;12.40;95448.00;;;;5051904;28;20307;-85
2021/12/29 05:52:43;;;;;;;1.03;0.40;;;12.20;84.40;12.40;95453.00;;;;5051349;28;20203;-86
2021/12/29 05:55:12;;;;;;;2.43;0.70;;;12.20;84.60;12.40;95452.00;;;;5051446;28;20565;-85
2021/12/29 05:57:40;;;;;;;3.00;0.47;;;12.30;84.50;12.40;95459.00;;;;5051435;28;20223;-85
2021/12/29 06:00:11;;;;;;;2.73;0.50;;;12.30;84.40;12.40;95469.00;;;;5051245;28;20220;-85
2021/12/29 06:02:39;;;;;;;0.77;0.40;;;12.30;84.40;12.40;95474.00;;;;5051733;28;20212;-86
2021/12/29 06:05:07;;;;;;;0.77;0.40;;;12.20;84.20;12.50;95482.00;;;;5051501;28;20203;-84
2021/12/29 06:07:35;;;;;;;1.07;0.47;;;12.30;84.10;12.50;95477.00;;;;5031871;28;20201;-85
2021/12/29 06:10:03;;;;;;;3.80;0.60;;;12.30;84.00;12.50;95482.00;;;;5048080;28;20213;-85
2021/12/29 06:12:32;;;;;;;2.70;0.50;;;12.30;84.00;12.50;95485.00;;;;5052194;28;20647;-85
2021/12/29 06:14:59;;;;;;;1.67;0.40;;;12.30;84.10;12.50;95508.00;;;;5055899;28;20202;-84
2021/12/29 06:17:25;;;;;;;0.83;0.40;;;12.70;84.30;12.50;95506.00;;;;5052441;28;20220;-85
2021/12/29 06:19:53;;;;;;;3.60;0.50;;;12.40;84.00;12.50;95514.00;;;;5052293;28;20219;-85
2021/12/29 06:22:20;;;;;;;3.03;0.63;;;12.40;84.00;12.50;95507.00;;;;5051669;28;20196;-85
2021/12/29 06:24:51;;;;;;;7.97;0.67;;;12.30;83.90;12.50;95506.00;;;;5051859;28;20202;-85
2021/12/29 06:27:19;;;;;;;3.10;0.57;;;12.40;83.70;12.50;95507.00;;;;5051418;28;20231;-85
2021/12/29 06:29:48;;;;;;;1.50;0.50;;;12.40;83.80;12.60;95515.00;;;;5051114;28;20224;-86
2021/12/29 06:32:16;;;;;;;1.43;0.40;;;12.40;83.90;12.60;95522.00;;;;5051418;28;20197;-84
2021/12/29 06:34:43;;;;;;;0.53;0.50;;;12.40;83.90;12.60;95531.00;;;;5051095;28;20205;-85
2021/12/29 06:37:12;;;;;;;1.80;0.40;;;12.40;84.00;12.60;95540.00;;;;5051149;28;20212;-85
2021/12/29 06:39:40;;;;;;;0.50;0.30;;;12.40;83.80;12.60;95552.00;;;;5051270;28;20220;-84
2021/12/29 06:42:08;;;;;;;1.50;0.37;;;12.40;83.80;12.70;95557.00;;;;5051833;28;20189;-85
2021/12/29 06:44:35;;;;;;;1.80;0.50;;;12.40;83.80;12.70;95553.00;;;;5053158;28;20200;-85
2021/12/29 06:47:05;;;;;;;0.83;0.23;;;12.50;83.70;12.70;95565.00;;;;5051387;28;20196;-86
2021/12/29 06:49:33;;;;;;;1.67;0.50;;;12.50;83.80;12.70;95566.00;;;;5052177;28;20567;-85
2021/12/29 06:52:01;;;;;;;0.60;0.40;;;12.50;83.90;12.60;95569.00;;;;5054528;28;20203;-86
2021/12/29 06:54:30;;;;;;;1.43;0.70;;;12.50;83.90;12.60;95581.00;;;;5054921;28;20585;-86
2021/12/29 06:56:57;;;;;;;1.10;0.40;;;12.50;83.90;12.60;95581.00;;;;5054843;28;20217;-86
2021/12/29 06:59:24;;;;;;;1.03;0.60;;;12.40;83.80;12.50;95586.00;;;;5054349;28;20561;-85
2021/12/29 07:01:52;;;;;;;2.00;0.43;;;12.40;83.80;12.50;95596.00;;;;5055055;28;20188;-85
2021/12/29 07:04:23;;;;;;;1.30;0.20;;;12.50;84.00;12.50;95590.00;;;;5054278;28;20204;-84
2021/12/29 07:06:51;;;;;;;2.63;0.63;;;12.40;84.10;12.50;95592.00;;;;5055123;28;20299;-85
2021/12/29 07:09:18;;;;;;;1.53;0.30;;;12.40;84.20;12.50;95588.00;;;;5054810;28;20201;-85
2021/12/29 07:11:45;;;;;;;1.70;0.53;;;12.40;84.40;12.50;95587.00;;;;5054181;28;20202;-86
2021/12/29 07:14:12;;;;;;;0.63;0.40;;;12.40;84.50;12.50;95588.00;;;;5054077;28;20205;-85
2021/12/29 07:16:43;;;;;;;1.03;0.40;;;12.40;84.50;12.50;95605.00;;;;5054366;28;20682;-84
2021/12/29 07:19:11;;;;;;;1.13;0.30;;;12.40;84.40;12.50;95593.00;;;;5054735;28;20197;-85
2021/12/29 07:21:40;;;;;;;2.23;0.47;;;12.40;84.30;12.50;95602.00;;;;5054941;28;20279;-85
2021/12/29 07:24:08;;;;;;;1.90;0.30;;;12.40;84.50;12.50;95597.00;;;;5054292;28;20193;-85
2021/12/29 07:26:36;;;;;;;1.40;0.60;;;12.40;85.10;12.50;95591.00;;;;5054619;28;20247;-85
2021/12/29 07:29:04;;;;;;;2.53;0.60;;;12.40;84.70;12.50;95599.00;;;;5054745;28;20205;-85
2021/12/29 07:31:32;;;;;;;1.40;0.40;;;12.30;84.60;12.50;95593.00;;;;5059661;28;20203;-85
2021/12/29 07:34:00;;;;;;;0.97;0.50;;;12.40;84.70;12.50;95593.00;;;;5054418;28;20204;-86
2021/12/29 07:36:27;;;;;;;3.17;0.40;;;12.30;84.50;12.50;95600.00;;;;5054500;28;20227;-85
2021/12/29 07:38:57;;;;;;;1.07;0.57;;;12.40;84.70;12.50;95600.00;;;;5048191;28;20197;-85
2021/12/29 07:41:24;;;;;;;1.63;0.50;;;12.40;84.50;12.50;95616.00;;;;5034069;28;20702;-85
2021/12/29 07:43:52;;;;;;;1.83;0.43;;;12.30;84.60;12.50;95623.00;;;;5046209;28;20235;-85
2021/12/29 07:46:19;;;;;;;1.23;0.40;;;12.30;84.60;12.50;95628.00;;;;5053355;28;20222;-85
2021/12/29 07:48:46;;;;;;;0.30;0.30;;;12.40;84.70;12.50;95639.00;;;;5050940;28;20667;-83
2021/12/29 07:51:16;;;;;;;0.90;0.47;;;12.70;85.10;12.50;95647.00;;;;5047608;28;20213;-85
2021/12/29 07:53:43;;;;;;;2.57;0.40;;;12.30;84.70;12.50;95658.00;;;;5054319;28;20243;-86
2021/12/29 07:56:12;;;;;;;1.00;0.40;;;12.40;85.00;12.50;95658.00;;;;5053438;28;20192;-86
2021/12/29 07:58:40;;;;;;;1.83;0.40;;;12.40;85.10;12.60;95653.00;;;;5053910;28;20220;-86
2021/12/29 08:01:09;;;;;;;2.53;0.50;;;12.40;85.20;12.60;95662.00;;;;5051963;28;20620;-86
2021/12/29 08:03:37;;;;;;;2.77;0.50;;;13.00;85.50;12.60;95663.00;;;;5053094;28;20228;-86
2021/12/29 08:06:05;;;;;;;1.80;0.80;;;12.40;85.10;12.60;95655.00;;;;5054029;28;20211;-86
2021/12/29 08:08:32;;;;;;;3.23;2.93;;;12.40;85.20;12.60;95656.00;;;;5053991;28;20204;-85
2021/12/29 08:10:59;;;;;;;4.80;4.33;;;12.40;85.20;12.60;95666.00;;;;5047797;28;20303;-85
2021/12/29 08:13:27;;;;;;;2.57;2.37;;;12.40;85.20;12.60;95667.00;;;;5053731;28;20293;-86
2021/12/29 08:15:54;;;;;;;2.90;1.70;;;12.40;85.30;12.60;95688.00;;;;5053442;28;20189;-86
2021/12/29 08:18:21;;;;;;;3.07;1.10;;;12.40;85.20;12.60;95677.00;;;;5053332;28;20232;-86
2021/12/29 08:20:48;;;;;;;1.10;0.50;;;12.40;85.10;12.60;95677.00;;;;5053509;28;20220;-85
2021/12/29 08:23:15;;;;;;;1.10;0.50;;;12.40;85.20;12.60;95670.00;;;;5053226;28;20203;-85
2021/12/29 08:25:43;;;;;;;1.37;0.40;;;12.40;85.30;12.60;95674.00;;;;5053242;28;20271;-86
2021/12/29 08:28:10;;;;;;;3.23;0.50;;;12.40;86.00;12.70;95673.00;;;;5054533;28;20204;-81
2021/12/29 08:30:38;;;;;;;8.27;2.03;;;12.40;85.30;12.70;95673.00;;;;5054867;28;20235;-82
2021/12/29 08:33:06;;;;;;;0.80;0.60;;;12.40;85.50;12.70;95681.00;;;;5043506;28;20192;-81
2021/12/29 08:35:33;;;;;;;1.70;0.50;;;12.50;85.50;12.80;95683.00;;;;5054395;28;20674;-82
2021/12/29 08:38:00;;;;;;;0.80;0.30;;;12.50;85.50;12.80;95685.00;;;;5055349;28;20217;-82
2021/12/29 08:40:28;;;;;;;1.87;0.50;;;12.50;85.40;12.90;95682.00;;;;5053593;28;20220;-86
2021/12/29 08:42:58;;;;;;;1.27;0.50;;;12.60;85.40;12.90;95677.00;;;;5053186;28;20647;-84
2021/12/29 08:45:27;;;;;;;3.20;0.70;;;12.50;85.30;12.90;95685.00;;;;5053412;28;20204;-86
2021/12/29 08:47:58;;;;;;;2.73;0.50;;;12.60;86.10;12.90;95687.00;;;;5053592;28;20201;-85
2021/12/29 08:50:29;;;;;;;0.60;0.40;;;12.60;85.40;12.90;95691.00;;;;5050969;28;20748;-87
2021/12/29 08:52:57;;;;;;;3.00;0.77;;;12.60;85.40;12.90;95685.00;;;;5033694;28;20200;-85
2021/12/29 08:55:24;;;;;;;1.33;0.77;;;12.60;85.50;13.00;95692.00;;;;5035908;28;20207;-85
2021/12/29 08:57:51;;;;;;;1.97;1.00;;;12.60;85.60;13.00;95704.00;;;;5053219;28;20232;-83
2021/12/29 09:00:20;;;;;;;11.33;0.83;;;12.70;85.60;13.00;95698.00;;;;5052725;28;20220;-84
2021/12/29 09:02:47;;;;;;;2.90;0.60;;;12.70;85.60;13.10;95703.00;;;;5053347;28;20580;-84
2021/12/29 09:05:18;;;;;;;1.37;0.53;;;12.70;85.50;13.10;95703.00;;;;5052656;28;20201;-84
2021/12/29 09:07:48;;;;;;;3.23;0.90;;;12.70;85.50;13.10;95716.00;;;;5053234;28;20208;-84
2021/12/29 09:10:19;;;;;;;2.23;0.60;;;12.70;85.60;13.20;95722.00;;;;5032665;28;20217;-84
2021/12/29 09:12:49;;;;;;;0.87;0.57;;;12.80;85.60;13.20;95719.00;;;;5032780;28;20308;-85
2021/12/29 09:15:17;;;;;;;1.77;0.70;;;12.80;85.60;13.20;95727.00;;;;5052705;28;20276;-84
2021/12/29 09:17:44;;;;;;;11.80;0.77;;;12.80;85.50;13.20;95733.00;;;;5053081;28;20220;-84
2021/12/29 09:20:15;;;;;;;0.93;0.40;;;12.80;85.50;13.30;95733.00;;;;5060439;28;20219;-83
2021/12/29 09:22:44;;;;;;;2.30;0.40;;;12.90;85.50;13.30;95737.00;;;;5066307;28;20185;-84
2021/12/29 09:25:11;;;;;;;2.37;0.60;;;12.90;85.40;13.30;95731.00;;;;5055088;28;20721;-84
2021/12/29 09:27:38;;;;;;;2.50;0.80;;;12.90;85.30;13.30;95744.00;;;;5053362;28;20201;-84
2021/12/29 09:30:07;;;;;;;2.90;0.80;;;12.90;85.30;13.30;95737.00;;;;5051323;28;20228;-84
2021/12/29 09:32:34;;;;;;;0.97;0.53;;;13.00;85.00;13.30;95744.00;;;;5052661;28;20204;-85
2021/12/29 09:35:01;;;;;;;1.80;0.60;;;13.00;84.90;13.30;95736.00;;;;5052314;28;20192;-84
2021/12/29 09:37:30;;;;;;;1.57;0.50;;;13.00;85.10;13.40;95732.00;;;;5052316;28;20221;-84
2021/12/29 09:39:59;;;;;;;1.30;0.70;;;13.00;85.00;13.40;95736.00;;;;5052806;28;20212;-84
2021/12/29 09:42:26;;;;;;;1.90;0.60;;;13.10;84.90;13.40;95734.00;;;;5052322;28;20207;-85
2021/12/29 09:44:53;;;;;;;2.63;0.43;;;13.10;84.50;13.50;95732.00;;;;5051958;28;20287;-84
2021/12/29 09:47:21;;;;;;;1.00;0.50;;;13.10;84.70;13.50;95732.00;;;;5054835;28;20207;-85
2021/12/29 09:49:48;;;;;;;2.07;0.70;;;13.20;84.60;13.60;95741.00;;;;5063166;28;20215;-85
2021/12/29 09:52:15;;;;;;;3.67;0.67;;;13.70;84.70;13.60;95730.00;;;;5054863;28;20650;-84
2021/12/29 09:54:43;;;;;;;2.10;0.90;;;13.20;84.40;13.60;95737.00;;;;5051907;28;20680;-85
2021/12/29 09:57:12;;;;;;;0.57;0.43;;;13.20;84.50;13.70;95747.00;;;;5052434;28;20218;-85
2021/12/29 09:59:39;;;;;;;0.63;0.33;;;13.30;84.40;13.70;95739.00;;;;5052141;28;20228;-85
2021/12/29 10:02:07;;;;;;;4.03;0.70;;;13.30;84.40;13.70;95733.00;;;;5056597;28;20210;-83
2021/12/29 10:04:36;;;;;;;1.20;0.47;;;13.30;84.40;13.80;95745.00;;;;5045913;28;20601;-84
2021/12/29 10:07:13;;;;;;;2.90;0.60;;;13.40;84.10;13.80;95743.00;;;;5052144;28;20250;-84
2021/12/29 10:09:40;;;;;;;1.50;0.50;;;13.40;83.40;13.90;95741.00;;;;5044052;28;20219;-83
2021/12/29 10:12:17;;;;;;;1.73;0.67;;;13.50;84.60;14.00;95741.00;;;;5052015;28;20200;-85
2021/12/29 10:14:49;;;;;;;5.50;0.60;;;13.60;85.00;14.10;95746.00;;;;5033015;28;20673;-83
2021/12/29 10:17:17;;;;;;;2.13;0.60;;;13.70;85.00;14.20;95758.00;;;;5034266;28;20205;-84
2021/12/29 10:19:45;;;;;;;2.17;0.63;;;13.80;85.40;14.30;95761.00;;;;5051642;28;20209;-84
2021/12/29 10:22:22;;;;;;;1.60;0.60;;;13.90;85.20;14.40;95761.00;;;;5067269;28;20654;-84
2021/12/29 10:25:01;;;;;;;0.97;0.50;;;14.00;83.90;14.50;95752.00;;;;5052703;28;20183;-83
2021/12/29 10:27:31;;;;;;;3.53;0.80;;;14.10;84.00;14.50;95766.00;;;;5056275;28;20189;-85
2021/12/29 10:29:59;;;;;;;0.33;0.30;;;14.20;83.70;14.60;95770.00;;;;5055937;28;20698;-87
2021/12/29 10:32:26;;;;;;;1.97;0.80;;;14.20;83.80;14.60;95771.00;;;;5056129;28;20207;-84
2021/12/29 10:34:55;;;;;;;2.23;0.50;;;14.20;83.50;14.70;95774.00;;;;5039400;28;20658;-85
2021/12/29 10:37:24;;;;;;;1.53;0.40;;;14.30;83.10;14.70;95779.00;;;;5035910;28;20203;-84
2021/12/29 10:39:55;;;;;;;0.90;0.60;;;14.40;82.90;14.70;95796.00;;;;5047866;28;20209;-84
2021/12/29 10:42:26;;;;;;;1.37;0.40;;;14.40;82.40;14.70;95786.00;;;;5055050;28;20711;-84
2021/12/29 10:44:59;;;;;;;1.23;0.50;;;14.40;82.60;14.60;95785.00;;;;5048752;28;20571;-84
2021/12/29 10:47:28;;;;;;;1.10;0.50;;;14.40;82.00;14.60;95783.00;;;;5055281;28;20537;-85
2021/12/29 10:49:59;;;;;;;2.07;0.70;;;14.30;82.20;14.60;95785.00;;;;5054497;28;20216;-84
2021/12/29 10:52:32;;;;;;;2.47;0.83;;;14.30;82.20;14.60;95781.00;;;;5055732;28;20222;-85
2021/12/29 10:55:00;;;;;;;0.67;0.30;;;14.30;81.70;14.50;95783.00;;;;5052473;28;20185;-85
2021/12/29 10:57:27;;;;;;;1.07;0.57;;;14.20;81.90;14.50;95789.00;;;;5053322;28;20658;-85
2021/12/29 10:59:58;;;;;;;0.70;0.60;;;14.20;82.00;14.50;95789.00;;;;5054240;28;20639;-84
2021/12/29 11:02:30;;;;;;;6.50;0.80;;;14.20;82.60;14.50;95790.00;;;;5052857;28;20243;-86
2021/12/29 11:04:59;;;;;;;2.27;0.60;;;14.20;82.80;14.50;95786.00;;;;5052390;28;20200;-85
2021/12/29 11:07:29;;;;;;;3.43;0.60;;;14.20;82.90;14.50;95789.00;;;;5054273;28;20304;-84